createdAt,value
2022-10-09T00:01:32.131Z,4.30
2022-10-09T00:03:59.521Z,4.85
2022-10-09T00:06:28.385Z,5.57
2022-10-09T00:08:55.087Z,3.75
2022-10-09T00:11:24.510Z,3.67
2022-10-09T00:13:51.742Z,3.13
2022-10-09T00:16:21.639Z,3.78
2022-10-09T00:18:48.537Z,3.80
2022-10-09T00:21:19.697Z,3.97
2022-10-09T00:23:46.505Z,4.25
2022-10-09T00:26:13.611Z,3.95
2022-10-09T00:28:40.407Z,4.50
2022-10-09T00:31:08.400Z,4.63
2022-10-09T00:33:36.857Z,4.07
2022-10-09T00:36:04.223Z,4.53
2022-10-09T00:38:30.787Z,4.65
2022-10-09T00:40:57.386Z,5.15
2022-10-09T00:43:42.865Z,5.22
2022-10-09T00:46:20.807Z,5.43
2022-10-09T00:48:55.059Z,4.43
2022-10-09T00:51:21.627Z,4.88
2022-10-09T00:53:48.227Z,4.80
2022-10-09T00:56:15.131Z,4.82
2022-10-09T00:58:41.682Z,4.80
2022-10-09T01:01:08.328Z,4.07
2022-10-09T01:03:34.906Z,4.90
2022-10-09T01:06:16.105Z,4.07
2022-10-09T01:08:49.517Z,3.80
2022-10-09T01:11:31.079Z,3.30
2022-10-09T01:14:04.330Z,5.57
2022-10-09T01:16:35.818Z,5.38
2022-10-09T01:19:11.019Z,5.50
2022-10-09T01:21:42.931Z,5.30
2022-10-09T01:27:03.789Z,4.82
2022-10-09T01:29:35.409Z,5.05
2022-10-09T01:32:04.428Z,5.25
2022-10-09T01:34:32.119Z,4.70
2022-10-09T01:36:59.298Z,4.70
2022-10-09T01:39:28.623Z,5.25
2022-10-09T01:41:57.069Z,4.85
2022-10-09T01:44:26.186Z,4.78
2022-10-09T01:46:55.944Z,4.90
2022-10-09T01:49:39.553Z,4.90
2022-10-09T01:52:19.737Z,5.10
2022-10-09T01:54:58.516Z,5.07
2022-10-09T01:57:32.205Z,4.72
2022-10-09T02:00:01.828Z,3.80
2022-10-09T02:02:39.320Z,3.97
2022-10-09T02:05:07.624Z,4.28
2022-10-09T02:07:34.804Z,3.85
2022-10-09T02:10:03.370Z,3.95
2022-10-09T02:12:37.199Z,3.58
2022-10-09T02:15:04.465Z,4.40
2022-10-09T02:17:34.884Z,4.90
2022-10-09T02:20:06.477Z,4.30
2022-10-09T02:22:33.265Z,4.50
2022-10-09T02:25:04.786Z,4.65
2022-10-09T02:27:33.629Z,4.10
2022-10-09T02:30:01.214Z,4.30
2022-10-09T02:32:28.337Z,3.90
2022-10-09T02:34:54.917Z,4.13
2022-10-09T02:37:21.490Z,4.25
2022-10-09T02:39:48.215Z,4.57
2022-10-09T02:42:14.816Z,4.70
2022-10-09T02:44:42.644Z,4.85
2022-10-09T02:47:09.337Z,3.75
2022-10-09T02:49:35.877Z,3.85
2022-10-09T02:52:02.419Z,4.13
2022-10-09T02:54:28.872Z,5.22
2022-10-09T02:56:55.395Z,4.93
2022-10-09T02:59:21.871Z,5.07
2022-10-09T03:01:49.837Z,4.70
2022-10-09T03:04:16.386Z,4.53
2022-10-09T03:06:43.107Z,4.82
2022-10-09T03:09:09.620Z,4.72
2022-10-09T03:11:36.212Z,5.13
2022-10-09T03:14:02.754Z,4.53
2022-10-09T03:16:29.362Z,5.03
2022-10-09T03:18:57.252Z,4.60
2022-10-09T03:21:25.820Z,5.55
2022-10-09T03:23:52.873Z,4.97
2022-10-09T03:26:21.598Z,4.95
2022-10-09T03:28:49.703Z,5.22
2022-10-09T03:31:46.459Z,4.82
2022-10-09T03:34:06.224Z,5.00
2022-10-09T03:36:32.770Z,4.88
2022-10-09T03:38:59.308Z,5.28
2022-10-09T03:41:25.788Z,4.88
2022-10-09T03:43:52.621Z,4.80
2022-10-09T03:46:19.155Z,4.47
2022-10-09T03:48:45.834Z,4.35
2022-10-09T03:51:13.709Z,4.43
2022-10-09T03:53:40.251Z,4.63
2022-10-09T03:56:07.104Z,5.30
2022-10-09T03:58:33.688Z,4.40
2022-10-09T04:01:00.236Z,4.22
2022-10-09T04:03:26.875Z,4.00
2022-10-09T04:05:53.406Z,4.03
2022-10-09T04:08:21.626Z,4.07
2022-10-09T04:10:48.101Z,3.80
2022-10-09T04:13:14.618Z,3.30
2022-10-09T04:15:49.866Z,4.03
2022-10-09T04:18:16.963Z,5.40
2022-10-09T04:20:44.890Z,4.78
2022-10-09T04:23:11.424Z,4.53
2022-10-09T04:25:39.273Z,5.28
2022-10-09T04:28:05.884Z,4.70
2022-10-09T04:30:32.452Z,4.95
2022-10-09T04:32:58.994Z,5.40
2022-10-09T04:35:25.497Z,5.32
2022-10-09T04:37:52.104Z,6.10
2022-10-09T04:40:18.699Z,5.10
2022-10-09T04:42:46.972Z,6.75
2022-10-09T04:45:13.647Z,5.95
2022-10-09T04:47:40.245Z,5.28
2022-10-09T04:50:07.910Z,4.75
2022-10-09T04:52:34.472Z,4.22
2022-10-09T04:55:01.172Z,4.53
2022-10-09T04:57:27.765Z,5.03
2022-10-09T04:59:55.779Z,4.63
2022-10-09T05:02:22.375Z,4.63
2022-10-09T05:04:48.860Z,4.65
2022-10-09T05:07:15.459Z,5.13
2022-10-09T05:09:41.957Z,4.55
2022-10-09T05:12:08.579Z,4.75
2022-10-09T05:14:35.144Z,4.65
2022-10-09T05:17:13.780Z,4.35
2022-10-09T05:19:41.248Z,4.47
2022-10-09T05:22:07.732Z,4.43
2022-10-09T05:24:34.342Z,3.95
2022-10-09T05:27:00.882Z,3.95
2022-10-09T05:29:27.389Z,4.22
2022-10-09T05:31:53.996Z,3.83
2022-10-09T05:34:22.058Z,4.95
2022-10-09T05:36:48.556Z,4.28
2022-10-09T05:39:16.039Z,3.75
2022-10-09T05:41:42.533Z,4.57
2022-10-09T05:44:09.123Z,3.47
2022-10-09T05:46:35.707Z,4.28
2022-10-09T05:49:04.916Z,3.78
2022-10-09T05:51:34.237Z,4.28
2022-10-09T05:54:01.025Z,4.47
2022-10-09T05:56:29.074Z,4.25
2022-10-09T05:58:57.495Z,4.63
2022-10-09T06:01:25.964Z,4.03
2022-10-09T06:03:54.443Z,4.47
2022-10-09T06:06:22.841Z,4.45
2022-10-09T06:08:50.980Z,3.83
2022-10-09T06:11:19.710Z,4.63
2022-10-09T06:13:46.905Z,4.20
2022-10-09T06:16:15.139Z,3.97
2022-10-09T06:18:46.811Z,4.60
2022-10-09T06:21:15.943Z,4.07
2022-10-09T06:23:42.870Z,4.13
2022-10-09T06:26:12.923Z,4.28
2022-10-09T06:28:40.198Z,4.45
2022-10-09T06:31:08.654Z,3.80
2022-10-09T06:33:36.970Z,4.00
2022-10-09T06:36:10.378Z,4.82
2022-10-09T06:38:37.783Z,4.43
2022-10-09T06:41:06.086Z,4.00
2022-10-09T06:43:34.473Z,4.35
2022-10-09T06:46:02.025Z,3.92
2022-10-09T06:48:29.229Z,4.32
2022-10-09T06:50:55.738Z,4.30
2022-10-09T06:53:22.367Z,4.35
2022-10-09T06:55:52.502Z,4.15
2022-10-09T06:58:19.075Z,4.40
2022-10-09T07:00:47.161Z,4.28
2022-10-09T07:03:14.618Z,4.38
2022-10-09T07:05:41.180Z,4.63
2022-10-09T07:08:07.802Z,4.63
2022-10-09T07:10:34.522Z,4.18
2022-10-09T07:13:01.137Z,4.53
2022-10-09T07:15:27.722Z,4.22
2022-10-09T07:17:55.625Z,4.80
2022-10-09T07:20:22.111Z,4.60
2022-10-09T07:22:48.844Z,4.55
2022-10-09T07:25:15.673Z,5.05
2022-10-09T07:27:42.209Z,5.22
2022-10-09T07:30:09.717Z,4.70
2022-10-09T07:32:36.295Z,4.78
2022-10-09T07:35:04.924Z,4.60
2022-10-09T07:37:31.523Z,4.72
2022-10-09T07:39:58.041Z,5.60
2022-10-09T07:42:24.649Z,5.60
2022-10-09T07:44:51.378Z,4.47
2022-10-09T07:47:17.957Z,4.50
2022-10-09T07:49:44.495Z,4.38
2022-10-09T07:52:12.514Z,5.03
2022-10-09T07:54:39.022Z,4.63
2022-10-09T07:57:05.584Z,4.60
2022-10-09T07:59:32.098Z,4.57
2022-10-09T08:01:58.738Z,5.05
2022-10-09T08:04:25.285Z,4.43
2022-10-09T08:06:51.814Z,5.28
2022-10-09T08:09:19.910Z,5.20
2022-10-09T08:11:46.516Z,4.53
2022-10-09T08:14:16.739Z,4.55
2022-10-09T08:16:45.805Z,4.85
2022-10-09T08:19:12.324Z,4.57
2022-10-09T08:21:39.011Z,4.80
2022-10-09T08:24:05.869Z,4.32
2022-10-09T08:26:33.792Z,4.90
2022-10-09T08:29:02.155Z,4.40
2022-10-09T08:31:29.316Z,4.60
2022-10-09T08:33:57.625Z,4.22
2022-10-09T08:36:25.288Z,4.88
2022-10-09T08:38:52.502Z,4.55
2022-10-09T08:41:34.712Z,4.55
2022-10-09T08:44:06.108Z,4.47
2022-10-09T08:46:41.533Z,4.00
2022-10-09T08:49:18.094Z,4.68
2022-10-09T08:51:44.794Z,4.60
2022-10-09T08:54:19.170Z,4.25
2022-10-09T08:56:47.530Z,3.90
2022-10-09T08:59:15.452Z,3.80
2022-10-09T09:01:48.459Z,3.70
2022-10-09T09:04:34.637Z,4.03
2022-10-09T09:07:11.999Z,3.17
2022-10-09T09:09:47.606Z,3.13
2022-10-09T09:12:21.690Z,3.33
2022-10-09T09:15:04.145Z,3.28
2022-10-09T09:17:40.952Z,3.13
2022-10-09T09:20:15.014Z,2.85
2022-10-09T09:22:47.371Z,2.88
2022-10-09T09:25:22.542Z,2.58
2022-10-09T09:27:49.841Z,2.60
2022-10-09T09:30:21.072Z,2.83
2022-10-09T09:32:54.709Z,2.53
2022-10-09T09:35:28.592Z,2.10
2022-10-09T09:37:55.506Z,2.83
2022-10-09T09:40:45.868Z,2.50
2022-10-09T09:43:16.583Z,2.10
2022-10-09T09:45:45.220Z,2.37
2022-10-09T09:48:16.105Z,2.60
2022-10-09T09:50:56.277Z,2.38
2022-10-09T09:53:34.670Z,2.40
2022-10-09T09:56:01.332Z,2.25
2022-10-09T09:58:34.039Z,1.90
2022-10-09T10:01:03.860Z,2.00
2022-10-09T10:03:31.158Z,1.73
2022-10-09T10:05:57.933Z,2.25
2022-10-09T10:08:26.393Z,2.08
2022-10-09T10:10:55.525Z,1.90
2022-10-09T10:13:28.244Z,1.65
2022-10-09T10:15:56.890Z,1.60
2022-10-09T10:18:27.074Z,1.60
2022-10-09T10:20:55.262Z,1.75
2022-10-09T10:23:25.148Z,1.80
2022-10-09T10:25:54.089Z,1.40
2022-10-09T10:28:24.760Z,1.50
2022-10-09T10:30:55.104Z,1.53
2022-10-09T10:33:27.310Z,2.08
2022-10-09T10:35:56.223Z,1.48
2022-10-09T10:38:28.144Z,1.30
2022-10-09T10:40:58.599Z,1.38
2022-10-09T10:43:32.665Z,1.25
2022-10-09T10:46:05.850Z,1.92
2022-10-09T10:48:39.277Z,1.17
2022-10-09T10:51:15.892Z,1.23
2022-10-09T10:53:57.012Z,1.02
2022-10-09T10:56:29.466Z,1.35
2022-10-09T10:59:13.322Z,0.80
2022-10-09T11:01:48.361Z,1.10
2022-10-09T11:04:36.945Z,1.00
2022-10-09T11:07:15.250Z,1.35
2022-10-09T11:09:52.117Z,1.30
2022-10-09T11:12:46.830Z,1.80
2022-10-09T11:15:24.160Z,1.27
2022-10-09T11:17:58.996Z,0.90
2022-10-09T11:20:48.377Z,1.02
2022-10-09T11:23:26.759Z,0.90
2022-10-09T11:26:02.744Z,0.90
2022-10-09T11:28:35.538Z,1.30
2022-10-09T11:31:12.474Z,0.98
2022-10-09T11:33:45.307Z,1.00
2022-10-09T11:36:18.445Z,1.20
2022-10-09T11:38:48.622Z,1.00
2022-10-09T11:41:15.623Z,1.10
2022-10-09T11:43:54.454Z,1.23
2022-10-09T11:46:33.705Z,0.90
2022-10-09T11:49:10.119Z,0.93
2022-10-09T11:51:47.344Z,0.85
2022-10-09T11:54:16.849Z,0.90
2022-10-09T11:56:53.469Z,0.88
2022-10-09T11:59:23.044Z,0.90
2022-10-09T12:01:49.574Z,0.82
2022-10-09T12:04:32.385Z,0.90
2022-10-09T12:07:12.059Z,0.90
2022-10-09T12:09:41.485Z,0.90
2022-10-09T12:12:20.829Z,1.00
2022-10-09T12:14:49.837Z,0.85
2022-10-09T12:17:29.220Z,0.90
2022-10-09T12:20:03.845Z,0.80
2022-10-09T12:22:35.057Z,0.95
2022-10-09T12:25:06.757Z,0.90
2022-10-09T12:27:36.146Z,1.13
2022-10-09T12:30:15.736Z,1.10
2022-10-09T12:32:46.182Z,1.08
2022-10-09T12:35:20.970Z,1.10
2022-10-09T12:37:48.961Z,1.10
2022-10-09T12:40:18.218Z,1.48
2022-10-09T12:42:45.158Z,0.98
2022-10-09T12:45:16.564Z,1.23
2022-10-09T12:50:22.094Z,1.15
2022-10-09T12:52:52.163Z,1.02
2022-10-09T12:55:25.689Z,0.90
2022-10-09T12:57:53.248Z,1.33
2022-10-09T13:00:19.950Z,0.95
2022-10-09T13:02:46.861Z,1.10
2022-10-09T13:05:13.697Z,1.17
2022-10-09T13:07:40.522Z,1.13
2022-10-09T13:10:18.120Z,1.20
2022-10-09T13:12:50.919Z,1.77
2022-10-09T13:15:30.506Z,1.23
2022-10-09T13:17:57.218Z,1.40
2022-10-09T13:20:27.605Z,1.15
2022-10-09T13:22:58.568Z,1.48
2022-10-09T13:25:28.665Z,0.80
2022-10-09T13:27:55.241Z,1.10
2022-10-09T13:30:22.597Z,1.20
2022-10-09T13:32:49.275Z,1.20
2022-10-09T13:35:16.292Z,0.80
2022-10-09T13:37:42.832Z,1.10
2022-10-09T13:40:13.874Z,1.00
2022-10-09T13:42:42.672Z,1.10
2022-10-09T13:45:10.621Z,1.27
2022-10-09T13:47:37.196Z,0.98
2022-10-09T13:50:04.402Z,1.10
2022-10-09T13:52:31.066Z,0.90
2022-10-09T13:54:57.598Z,1.10
2022-10-09T13:57:24.279Z,1.23
2022-10-09T13:59:52.144Z,1.13
2022-10-09T14:02:18.894Z,1.10
2022-10-09T14:04:45.500Z,1.13
2022-10-09T14:07:12.146Z,0.85
2022-10-09T14:09:38.978Z,2.40
2022-10-09T14:12:05.677Z,1.30
2022-10-09T14:14:32.393Z,1.27
2022-10-09T14:17:00.477Z,1.10
2022-10-09T14:19:27.027Z,1.45
2022-10-09T14:21:53.620Z,1.10
2022-10-09T14:24:20.138Z,1.20
2022-10-09T14:26:51.357Z,1.00
2022-10-09T14:31:44.969Z,1.33
2022-10-09T14:34:13.667Z,1.15
2022-10-09T14:36:40.260Z,1.20
2022-10-09T14:39:06.828Z,1.20
2022-10-09T14:41:37.673Z,1.10
2022-10-09T14:44:04.725Z,0.95
2022-10-09T14:46:31.248Z,0.80
2022-10-09T14:48:57.837Z,0.90
2022-10-09T14:51:27.118Z,1.10
2022-10-09T14:53:56.578Z,1.10
2022-10-09T14:56:23.101Z,1.27
2022-10-09T14:58:49.874Z,1.10
2022-10-09T15:01:17.979Z,1.80
2022-10-09T15:03:45.025Z,1.00
2022-10-09T15:06:13.006Z,0.70
2022-10-09T15:08:42.073Z,1.17
2022-10-09T15:11:10.235Z,1.23
2022-10-09T15:13:37.079Z,1.10
2022-10-09T15:16:06.368Z,1.50
2022-10-09T15:18:33.446Z,1.02
2022-10-09T15:21:00.042Z,1.23
2022-10-09T15:23:26.761Z,1.00
2022-10-09T15:25:56.301Z,1.15
2022-10-09T15:28:23.094Z,1.20
2022-10-09T15:30:52.138Z,1.08
2022-10-09T15:33:18.766Z,1.23
2022-10-09T15:35:45.530Z,1.30
2022-10-09T15:38:14.010Z,0.90
2022-10-09T15:40:43.440Z,2.63
2022-10-09T15:43:11.806Z,1.95
2022-10-09T15:45:38.605Z,1.67
2022-10-09T15:48:05.562Z,1.13
2022-10-09T15:50:35.396Z,0.90
2022-10-09T15:53:02.237Z,2.40
2022-10-09T15:55:28.773Z,3.15
2022-10-09T15:57:55.321Z,1.20
2022-10-09T16:00:23.428Z,8.05
2022-10-09T16:02:50.207Z,4.18
2022-10-09T16:05:16.925Z,3.10
2022-10-09T16:07:43.446Z,1.10
2022-10-09T16:10:10.513Z,1.30
2022-10-09T16:12:37.074Z,1.10
2022-10-09T16:15:04.115Z,1.02
2022-10-09T16:17:32.038Z,1.10
2022-10-09T16:19:58.573Z,1.20
2022-10-09T16:22:25.249Z,1.05
2022-10-09T16:24:51.786Z,1.38
2022-10-09T16:27:18.373Z,1.20
2022-10-09T16:29:44.899Z,1.15
2022-10-09T16:32:11.502Z,1.30
2022-10-09T16:34:39.377Z,1.20
2022-10-09T16:37:05.909Z,1.38
2022-10-09T16:39:32.443Z,2.58
2022-10-09T16:41:59.021Z,1.45
2022-10-09T16:44:25.583Z,1.50
2022-10-09T16:46:52.533Z,1.23
2022-10-09T16:49:22.814Z,1.48
2022-10-09T16:51:52.941Z,1.20
2022-10-09T16:54:19.507Z,1.63
2022-10-09T16:56:46.073Z,1.70
2022-10-09T16:59:12.843Z,3.47
2022-10-09T17:01:39.678Z,2.00
2022-10-09T17:04:06.168Z,1.52
2022-10-09T17:06:32.833Z,1.70
2022-10-09T17:09:00.680Z,1.88
2022-10-09T17:11:29.709Z,1.98
2022-10-09T17:13:57.136Z,2.45
2022-10-09T17:16:26.379Z,1.65
2022-10-09T17:18:53.087Z,1.58
2022-10-09T17:21:20.099Z,1.67
2022-10-09T17:23:47.453Z,2.38
2022-10-09T17:26:17.236Z,3.35
2022-10-09T17:28:44.955Z,4.15
2022-10-09T17:31:15.491Z,2.65
2022-10-09T17:33:43.305Z,3.25
2022-10-09T17:36:10.461Z,3.65
2022-10-09T17:38:37.114Z,3.38
2022-10-09T17:41:04.337Z,3.03
2022-10-09T17:43:32.617Z,2.00
2022-10-09T17:45:59.419Z,2.20
2022-10-09T17:48:26.366Z,2.00
2022-10-09T17:50:54.423Z,2.50
2022-10-09T17:53:21.117Z,3.03
2022-10-09T17:55:47.646Z,4.00
2022-10-09T17:58:14.181Z,3.65
2022-10-09T18:00:42.149Z,4.18
2022-10-09T18:03:08.767Z,3.22
2022-10-09T18:05:41.327Z,2.15
2022-10-09T18:08:08.190Z,4.18
2022-10-09T18:10:34.996Z,4.75
2022-10-09T18:13:01.581Z,4.15
2022-10-09T18:15:28.092Z,4.55
2022-10-09T18:17:56.089Z,4.57
2022-10-09T18:20:22.771Z,4.85
2022-10-09T18:22:49.378Z,5.82
2022-10-09T18:25:16.058Z,5.13
2022-10-09T18:27:42.666Z,5.32
2022-10-09T18:30:10.675Z,5.05
2022-10-09T18:32:37.245Z,4.47
2022-10-09T18:35:05.666Z,4.57
2022-10-09T18:37:33.214Z,3.53
2022-10-09T18:39:59.735Z,3.35
2022-10-09T18:42:26.570Z,3.70
2022-10-09T18:44:53.090Z,4.25
2022-10-09T18:47:21.809Z,6.03
2022-10-09T18:49:52.163Z,6.75
2022-10-09T18:52:21.522Z,3.22
2022-10-09T18:54:50.389Z,2.55
2022-10-09T18:57:17.002Z,3.35
2022-10-09T18:59:43.611Z,4.20
2022-10-09T19:02:10.210Z,3.40
2022-10-09T19:04:36.802Z,4.20
2022-10-09T19:07:03.428Z,2.80
2022-10-09T19:09:31.333Z,2.90
2022-10-09T19:11:57.982Z,2.80
2022-10-09T19:14:24.501Z,3.17
2022-10-09T19:16:51.103Z,2.30
2022-10-09T19:19:17.642Z,2.20
2022-10-09T19:21:44.417Z,2.22
2022-10-09T19:24:12.104Z,2.10
2022-10-09T19:26:40.826Z,2.10
2022-10-09T19:29:07.741Z,2.08
2022-10-09T19:31:36.000Z,2.50
2022-10-09T19:34:04.522Z,2.40
2022-10-09T19:36:31.580Z,3.15
2022-10-09T19:38:58.127Z,2.50
2022-10-09T19:41:24.995Z,2.38
2022-10-09T19:43:52.906Z,2.15
2022-10-09T19:46:19.825Z,2.30
2022-10-09T19:48:46.888Z,2.70
2022-10-09T19:51:16.415Z,2.95
2022-10-09T19:53:42.926Z,2.53
2022-10-09T19:56:10.901Z,2.50
2022-10-09T19:58:39.687Z,3.05
2022-10-09T20:01:09.103Z,4.28
2022-10-09T20:03:35.666Z,2.38
2022-10-09T20:06:02.455Z,2.25
2022-10-09T20:08:29.084Z,2.50
2022-10-09T20:10:57.817Z,2.20
2022-10-09T20:13:24.343Z,2.03
2022-10-09T20:15:50.937Z,2.20
2022-10-09T20:18:18.897Z,2.20
2022-10-09T20:20:47.389Z,2.03
2022-10-09T20:23:14.614Z,2.53
2022-10-09T20:25:41.144Z,2.58
2022-10-09T20:28:07.849Z,2.40
2022-10-09T20:30:34.446Z,2.30
2022-10-09T20:33:01.382Z,2.42
2022-10-09T20:35:29.609Z,3.05
2022-10-09T20:37:57.749Z,3.95
2022-10-09T20:40:24.391Z,4.50
2022-10-09T20:42:51.291Z,6.45
2022-10-09T20:45:18.185Z,6.25
2022-10-09T20:47:44.704Z,3.45
2022-10-09T20:50:11.221Z,2.28
2022-10-09T20:52:39.129Z,2.33
2022-10-09T20:55:06.735Z,4.18
2022-10-09T20:57:33.484Z,4.10
2022-10-09T21:00:00.030Z,4.22
2022-10-09T21:02:26.557Z,2.40
2022-10-09T21:04:53.073Z,2.67
2022-10-09T21:07:19.616Z,2.20
2022-10-09T21:09:47.611Z,2.53
2022-10-09T21:12:14.276Z,2.67
2022-10-09T21:14:40.802Z,2.45
2022-10-09T21:17:07.308Z,2.58
2022-10-09T21:19:33.858Z,3.25
2022-10-09T21:22:00.375Z,3.40
2022-10-09T21:24:26.864Z,2.85
2022-10-09T21:26:54.730Z,2.17
2022-10-09T21:29:21.369Z,2.30
2022-10-09T21:31:47.954Z,2.90
2022-10-09T21:34:14.516Z,3.30
2022-10-09T21:37:02.296Z,3.42
2022-10-09T21:39:30.235Z,3.72
2022-10-09T21:41:58.222Z,2.92
2022-10-09T21:44:24.816Z,2.33
2022-10-09T21:46:51.363Z,1.88
2022-10-09T21:49:20.827Z,2.28
2022-10-09T21:51:47.466Z,2.33
2022-10-09T21:54:14.365Z,2.28
2022-10-09T21:56:40.966Z,2.03
2022-10-09T21:59:09.191Z,2.05
2022-10-09T22:01:35.990Z,2.70
2022-10-09T22:04:03.029Z,2.72
2022-10-09T22:06:29.691Z,3.22
2022-10-09T22:08:56.298Z,3.05
2022-10-09T22:11:22.848Z,2.72
2022-10-09T22:13:49.522Z,3.10
2022-10-09T22:16:17.422Z,3.30
2022-10-09T22:18:44.200Z,2.75
2022-10-09T22:21:13.660Z,2.60
2022-10-09T22:23:40.768Z,2.03
2022-10-09T22:26:11.119Z,1.75
2022-10-09T22:28:38.108Z,3.28
2022-10-09T22:31:07.075Z,3.00
2022-10-09T22:33:35.682Z,3.20
2022-10-09T22:36:07.872Z,2.88
2022-10-09T22:38:35.201Z,3.53
2022-10-09T22:41:06.468Z,3.33
2022-10-09T22:43:33.279Z,2.38
2022-10-09T22:45:59.886Z,2.17
2022-10-09T22:48:26.465Z,3.47
2022-10-09T22:50:54.608Z,2.63
2022-10-09T22:53:21.220Z,2.00
2022-10-09T22:55:47.726Z,1.65
2022-10-09T22:58:14.313Z,2.17
2022-10-09T23:00:40.845Z,2.30
2022-10-09T23:03:07.476Z,2.50
2022-10-09T23:05:33.998Z,2.28
2022-10-09T23:08:01.988Z,2.50
2022-10-09T23:10:28.531Z,3.03
2022-10-09T23:12:55.104Z,2.95
2022-10-09T23:15:21.639Z,1.85
2022-10-09T23:17:48.257Z,2.50
2022-10-09T23:20:14.879Z,2.50
2022-10-09T23:22:41.489Z,2.40
2022-10-09T23:25:10.234Z,2.50
2022-10-09T23:27:36.844Z,2.20
2022-10-09T23:30:03.761Z,2.10
2022-10-09T23:32:30.349Z,2.65
2022-10-09T23:34:56.882Z,2.35
2022-10-09T23:37:23.566Z,2.10
2022-10-09T23:39:50.085Z,2.13
2022-10-09T23:42:18.050Z,2.30
2022-10-09T23:44:46.245Z,2.30
2022-10-09T23:47:12.789Z,2.10
2022-10-09T23:49:39.471Z,2.30
2022-10-09T23:52:06.046Z,2.40
2022-10-09T23:54:32.562Z,2.13
2022-10-09T23:56:59.172Z,1.98
2022-10-09T23:59:27.089Z,2.10
